Tuesday, October 23, 2018, 9:12 PM EDT
Back to Local

KIZG, Fryeburg Eastern Slopes Rgnl

Location: Fryeburg, ME, United States Lat: 43.983
Local Time: 9:12 PM EDT ( 1:12 GMT) Lon: -70.95
Time Zone: US/Eastern Elev: 452 ft

Show me the last for .
Show Decoded

2018-10-23 20:54 METAR KIZG 240054Z AUTO 35006KT 5SM RA BR FEW008 OVC014 03/03 A2996 RMK AO2
                 SLP149 P0017 T00330028 =
2018-10-23 20:36 METAR KIZG 240036Z AUTO 34005KT 6SM RA BR BKN013 OVC023 03/03 A2997 RMK AO2
                 P0010 T00330028 =
2018-10-23 19:54 METAR KIZG 232354Z AUTO 32004KT 6SM RA BR OVC017 03/02 A2999 RMK AO2 SLP162
                 P0012 60019 T00280022 10067 20028 55002 =
2018-10-23 19:26 METAR KIZG 232326Z AUTO 29006KT 5SM RA BR SCT009 OVC015 03/02 A3000 RMK AO2
                 P0007 T00280022 =
2018-10-23 18:54 METAR KIZG 232254Z AUTO 32007KT 6SM RA BR OVC007 04/03 A2999 RMK AO2 CIG 006V011
                 SLP161 P0004 T00390033 =
2018-10-23 17:54 METAR KIZG 232154Z AUTO 00000KT 10SM -RA OVC008 04/03 A2999 RMK AO2 RAB08E27B53
                 CIG 005V011 SLP160 P0001 T00440033 =
2018-10-23 17:17 METAR KIZG 232117Z AUTO 03005KT 10SM -RA OVC009 04/03 A2999 RMK AO2 RAB08 CIG
                 008V012 P0001 T00440033 =
2018-10-23 16:54 METAR KIZG 232054Z AUTO 04006KT 10SM OVC012 04/03 A3000 RMK AO2 RAE52 SLP163
                 P0000 60002 T00440033 56027 =
2018-10-23 16:34 METAR KIZG 232034Z AUTO 36004KT 10SM -RA OVC014 04/03 A3001 RMK AO2 P0000
                 T00440033 =
2018-10-23 15:54 METAR KIZG 231954Z AUTO 02005KT 8SM -RA OVC018 05/03 A3002 RMK AO2 RAE11B20
                 SLP171 P0002 T00500033 =
2018-10-23 15:27 METAR KIZG 231927Z AUTO 00000KT 10SM -RA BKN025 OVC035 06/03 A3003 RMK AO2
                 RAE11B20 P0000 T00560033 =
2018-10-23 15:14 METAR KIZG 231914Z AUTO 35003KT 10SM SCT027 OVC035 06/03 A3004 RMK AO2 RAE11
                 P0000 T00560033 =
2018-10-23 14:54 METAR KIZG 231854Z AUTO 04003KT 10SM -RA BKN027 OVC033 06/03 A3005 RMK AO2
                 SLP179 P0000 T00610028 =
2018-10-23 14:12 METAR KIZG 231812Z AUTO 01003KT 10SM -RA BKN028 OVC038 06/02 A3007 RMK AO2 P0000
                 T00610017 =
2018-10-23 13:54 METAR KIZG 231754Z AUTO 03005KT 10SM -RA BKN030 BKN038 OVC070 07/00 A3008 RMK
                 AO2 RAB53 SLP191 P0000 60000 T00670000 10072 20006 58021 =
2018-10-23 12:54 METAR KIZG 231654Z AUTO 35004KT 10SM BKN035 OVC047 07/M01 A3010 RMK AO2 RAB27E40
                 SLP199 P0000 T00671006 =
2018-10-23 11:54 METAR KIZG 231554Z AUTO 03003KT 10SM BKN060 OVC090 07/M01 A3013 RMK AO2 SLP209
                 T00671011 =
2018-10-23 10:54 METAR KIZG 231454Z AUTO 00000KT 10SM OVC060 06/M02 A3014 RMK AO2 SLP212
                 T00561022 58005 =
2018-10-23 09:54 METAR KIZG 231354Z AUTO VRB03KT 10SM BKN085 OVC100 05/M03 A3015 RMK AO2 SLP217
                 T00501028 =
2018-10-23 08:54 METAR KIZG 231254Z AUTO 02003KT 10SM SCT070 OVC100 03/M02 A3016 RMK AO2 SLP219
                 T00331022 =
2018-10-23 07:54 METAR KIZG 231154Z AUTO 00000KT 10SM OVC095 01/M01 A3016 RMK AO2 SLP219
                 T00061006 10011 20000 53005 =
2018-10-23 06:54 METAR KIZG 231054Z AUTO 00000KT 10SM SCT070 OVC095 01/M01 A3015 RMK AO2 SLP217
                 T00061011 =
2018-10-23 05:54 METAR KIZG 230954Z AUTO 00000KT 10SM BKN065 OVC085 01/M01 A3015 RMK AO2 SLP216
                 T00061011 =
2018-10-23 04:54 METAR KIZG 230854Z AUTO 32003KT 10SM FEW060 OVC085 01/M01 A3015 RMK AO2 SLP213
                 T00061011 55002 =
2018-10-23 03:54 METAR KIZG 230754Z AUTO 00000KT 10SM OVC085 01/M01 A3014 RMK AO2 SLP210
                 T00061011 =
2018-10-23 02:54 METAR KIZG 230654Z AUTO 00000KT 10SM OVC085 01/M02 A3014 RMK AO2 SLP212
                 T00061017 =
2018-10-23 01:54 METAR KIZG 230554Z AUTO 00000KT 10SM OVC070 01/M01 A3015 RMK AO2 SLP215
                 T00111011 10011 21028 58003 =
2018-10-23 00:54 METAR KIZG 230454Z AUTO 00000KT 10SM OVC075 01/M02 A3015 RMK AO2 SLP216
                 T00061022 400831028 =
2018-10-22 23:54 METAR KIZG 230354Z AUTO 00000KT 10SM BKN055 OVC070 01/M02 A3016 RMK AO2 SLP218
                 T00061022 =
2018-10-22 22:54 METAR KIZG 230254Z AUTO 00000KT 10SM OVC075 00/M02 A3016 RMK AO2 SLP218
                 T00001022 51008 =
2018-10-22 21:54 METAR KIZG 230154Z AUTO 00000KT 10SM BKN080 M02/M04 A3016 RMK AO2 SLP219
                 T10221039 =

Support USWX by starting your Amazon purchase here.